Time;durP1;ratioP1;P1;durP2;ratioP2;P2;SDS_P1;SDS_P2;PMS_P1;PMS_P2;Temp;Humidity;BMP_temperature;BMP_pressure;BME280_temperature;BME280_humidity;BME280_pressure;Samples;Min_cycle;Max_cycle;Signal;HPM_P1;HPM_P2
2022/01/31 00:01:43;;;;;;;22.10;3.60;;;0.60;96.30;;;;;;4994570;28;20411;-77
2022/01/31 00:04:08;;;;;;;18.00;3.13;;;0.60;96.30;;;;;;5012002;28;20517;-79
2022/01/31 00:06:33;;;;;;;26.00;4.30;;;0.60;96.30;;;;;;5012035;28;20667;-77
2022/01/31 00:08:59;;;;;;;27.30;3.57;;;0.60;96.30;;;;;;4994544;28;20235;-77
2022/01/31 00:11:25;;;;;;;17.73;3.60;;;0.60;96.30;;;;;;5012078;28;20649;-79
2022/01/31 00:14:00;;;;;;;20.93;3.50;;;0.60;96.30;;;;;;4994459;28;20215;-77
2022/01/31 00:16:31;;;;;;;20.63;3.17;;;0.60;96.30;;;;;;5010597;28;20427;-77
2022/01/31 00:18:56;;;;;;;18.43;4.00;;;0.70;96.30;;;;;;5012118;28;20835;-78
2022/01/31 00:21:22;;;;;;;27.80;3.67;;;0.60;96.30;;;;;;4994489;28;20456;-76
2022/01/31 00:23:48;;;;;;;30.70;4.40;;;0.60;96.30;;;;;;5011933;28;20575;-76
2022/01/31 00:26:13;;;;;;;21.40;3.80;;;0.50;96.30;;;;;;5010515;28;20173;-77
2022/01/31 00:28:38;;;;;;;22.63;3.23;;;0.50;96.30;;;;;;5012022;28;20654;-77
2022/01/31 00:31:04;;;;;;;25.07;4.80;;;0.60;96.30;;;;;;5011972;28;20173;-78
2022/01/31 00:33:29;;;;;;;20.73;3.87;;;0.60;96.30;;;;;;4996639;28;20652;-77
2022/01/31 00:35:55;;;;;;;22.33;3.33;;;0.50;96.30;;;;;;5015439;28;20196;-79
2022/01/31 00:38:20;;;;;;;23.90;4.20;;;0.60;96.30;;;;;;4998051;28;20272;-77
2022/01/31 00:40:46;;;;;;;21.87;3.37;;;0.60;96.30;;;;;;4997963;28;20200;-77
2022/01/31 00:43:12;;;;;;;25.47;3.90;;;0.60;96.30;;;;;;4997860;28;20284;-79
2022/01/31 00:45:46;;;;;;;30.70;4.70;;;0.50;96.30;;;;;;4997615;28;20207;-78
2022/01/31 00:48:17;;;;;;;25.13;3.83;;;0.50;96.30;;;;;;5015388;28;20935;-78
2022/01/31 00:50:47;;;;;;;19.23;3.63;;;0.60;96.30;;;;;;5015407;28;20407;-76
2022/01/31 00:53:12;;;;;;;26.57;3.80;;;0.50;96.30;;;;;;4997664;28;20779;-77
2022/01/31 00:55:38;;;;;;;25.00;4.90;;;0.50;96.30;;;;;;5015072;28;20474;-81
2022/01/31 00:58:04;;;;;;;24.77;4.37;;;0.50;96.30;;;;;;4997675;28;20219;-77
2022/01/31 05:01:43;;;;;;;19.27;5.07;;;-0.10;96.30;;;;;;5400347;23;20491;-78
2022/01/31 05:04:09;;;;;;;27.50;4.30;;;-0.10;96.30;;;;;;5034571;28;20458;-78
2022/01/31 05:06:38;;;;;;;18.50;3.97;;;-0.10;96.30;;;;;;5034502;28;20422;-78
2022/01/31 05:09:04;;;;;;;33.23;4.13;;;-0.10;96.30;;;;;;5034719;28;20251;-78
2022/01/31 05:11:29;;;;;;;24.03;5.03;;;-0.10;96.30;;;;;;5034824;28;20429;-79
2022/01/31 05:13:55;;;;;;;22.83;4.50;;;-0.10;96.30;;;;;;5019496;28;20414;-79
2022/01/31 05:16:22;;;;;;;20.20;4.53;;;0.00;96.30;;;;;;5037311;28;20176;-80
2022/01/31 05:18:47;;;;;;;19.23;4.40;;;0.10;96.30;;;;;;5035456;28;20540;-80
2022/01/31 05:28:59;;;;;;;15.40;3.50;;;0.00;96.30;;;;;;5804011;23;20479;-78
2022/01/31 05:31:25;;;;;;;26.80;4.63;;;0.10;96.30;;;;;;5032816;28;20431;-79
2022/01/31 05:33:50;;;;;;;18.80;4.27;;;0.10;96.30;;;;;;5034796;28;20173;-79
2022/01/31 05:36:16;;;;;;;14.63;3.23;;;0.20;96.30;;;;;;5034438;28;20632;-79
2022/01/31 05:38:41;;;;;;;20.67;5.20;;;0.20;96.30;;;;;;5016871;28;20215;-79
2022/01/31 05:41:11;;;;;;;24.53;4.43;;;0.20;96.30;;;;;;5036462;28;20663;-79
2022/01/31 05:43:36;;;;;;;20.73;4.07;;;0.20;96.30;;;;;;5041062;28;20172;-78
2022/01/31 05:46:03;;;;;;;20.60;4.60;;;0.30;96.30;;;;;;5035493;28;20407;-78
2022/01/31 05:48:28;;;;;;;15.60;3.93;;;0.30;96.30;;;;;;5035224;28;20170;-79
2022/01/31 05:50:54;;;;;;;23.37;4.40;;;0.30;96.30;;;;;;5042028;28;20509;-77
2022/01/31 05:53:22;;;;;;;26.90;4.30;;;0.30;96.30;;;;;;5020766;28;20176;-79
2022/01/31 05:55:48;;;;;;;20.70;3.83;;;0.30;96.30;;;;;;5018181;28;20423;-79
2022/01/31 05:58:14;;;;;;;24.63;3.70;;;0.30;96.30;;;;;;5021325;28;20423;-78
2022/01/31 06:00:40;;;;;;;20.87;5.13;;;0.30;96.30;;;;;;5039316;28;20287;-79
2022/01/31 06:03:05;;;;;;;19.63;4.87;;;0.20;96.30;;;;;;5040887;28;20464;-78
2022/01/31 06:05:31;;;;;;;89.43;44.30;;;0.20;96.30;;;;;;5035101;28;20207;-79
2022/01/31 06:07:57;;;;;;;36.50;9.90;;;0.20;96.30;;;;;;5017564;28;20172;-79
2022/01/31 06:10:23;;;;;;;25.43;7.87;;;0.20;96.30;;;;;;5034713;28;20178;-79
2022/01/31 06:12:51;;;;;;;22.70;5.20;;;0.20;96.30;;;;;;5016545;28;20243;-79
2022/01/31 06:15:17;;;;;;;17.63;4.13;;;0.20;96.30;;;;;;5015936;28;20419;-78
2022/01/31 06:17:42;;;;;;;19.10;3.67;;;0.20;96.30;;;;;;5015850;28;20415;-80
2022/01/31 06:20:08;;;;;;;29.47;4.50;;;0.20;96.30;;;;;;5015927;28;20481;-81
2022/01/31 06:22:34;;;;;;;11.60;3.87;;;0.30;96.30;;;;;;5033650;28;20181;-80
2022/01/31 06:24:59;;;;;;;13.47;3.53;;;0.30;96.30;;;;;;5015002;28;20228;-81
2022/01/31 06:27:25;;;;;;;19.43;5.47;;;0.30;96.30;;;;;;5033445;28;20218;-80
2022/01/31 06:29:50;;;;;;;14.63;4.00;;;0.30;96.30;;;;;;5014993;28;20188;-81
2022/01/31 06:32:18;;;;;;;12.73;3.80;;;0.40;96.30;;;;;;5015215;28;20691;-79
2022/01/31 06:34:43;;;;;;;13.47;4.13;;;0.30;96.30;;;;;;5033468;28;20176;-80
2022/01/31 06:37:09;;;;;;;18.27;3.87;;;0.30;96.30;;;;;;5015819;28;20557;-81
2022/01/31 06:39:34;;;;;;;19.53;4.30;;;0.30;96.30;;;;;;5033371;28;20184;-80
2022/01/31 06:42:00;;;;;;;19.30;3.83;;;0.30;96.30;;;;;;5015418;28;20699;-78
2022/01/31 06:44:25;;;;;;;20.90;4.67;;;0.40;96.30;;;;;;5015464;28;20200;-80
2022/01/31 06:46:51;;;;;;;19.00;3.93;;;0.40;96.30;;;;;;5017570;28;20549;-79
2022/01/31 06:49:16;;;;;;;16.77;3.10;;;0.40;96.30;;;;;;5039553;28;20187;-78
2022/01/31 06:51:42;;;;;;;25.20;4.50;;;0.30;96.30;;;;;;5033295;28;20189;-79
2022/01/31 06:54:08;;;;;;;20.90;3.20;;;0.20;96.30;;;;;;5033291;28;20184;-78
2022/01/31 06:56:38;;;;;;;16.60;3.60;;;0.20;96.30;;;;;;5013327;28;20183;-78
2022/01/31 06:59:03;;;;;;;22.53;4.67;;;0.30;96.30;;;;;;5032988;28;20431;-81
2022/01/31 07:01:29;;;;;;;16.13;2.90;;;0.30;96.30;;;;;;5015436;28;20475;-80
2022/01/31 07:03:55;;;;;;;20.60;3.93;;;0.30;96.30;;;;;;5010815;28;20192;-80
2022/01/31 07:06:23;;;;;;;16.03;4.10;;;0.30;96.30;;;;;;5003954;28;20227;-79
2022/01/31 07:08:49;;;;;;;18.83;5.53;;;0.30;96.30;;;;;;5015463;28;20902;-78
2022/01/31 07:11:21;;;;;;;11.97;4.30;;;0.20;96.30;;;;;;5013751;28;20451;-79
2022/01/31 07:13:48;;;;;;;19.67;4.30;;;0.30;96.30;;;;;;5014047;28;20414;-80
2022/01/31 07:16:14;;;;;;;15.03;3.83;;;0.40;96.30;;;;;;5032599;28;20494;-79
2022/01/31 07:18:41;;;;;;;14.80;3.13;;;0.30;96.30;;;;;;5029814;28;20526;-80
2022/01/31 07:21:12;;;;;;;26.67;4.37;;;0.30;96.30;;;;;;5014576;28;20478;-79
2022/01/31 07:24:03;;;;;;;25.10;4.50;;;0.40;96.30;;;;;;5029845;28;20410;-79
2022/01/31 07:26:28;;;;;;;9.63;3.73;;;0.40;96.30;;;;;;5014064;28;20434;-79
2022/01/31 07:28:54;;;;;;;11.77;3.70;;;0.40;96.30;;;;;;5013511;28;20442;-79
2022/01/31 07:31:19;;;;;;;18.50;5.40;;;0.40;96.30;;;;;;5012756;28;20196;-79
2022/01/31 07:33:45;;;;;;;50.80;25.80;;;0.30;96.30;;;;;;5014560;28;20267;-78
2022/01/31 07:36:11;;;;;;;14.93;5.03;;;0.40;96.30;;;;;;5012184;28;20168;-79
2022/01/31 07:38:36;;;;;;;10.60;2.87;;;0.40;96.30;;;;;;5032151;28;20168;-79
2022/01/31 07:41:02;;;;;;;19.70;3.70;;;0.50;96.30;;;;;;5012660;28;20315;-78
2022/01/31 07:43:30;;;;;;;12.60;3.70;;;0.50;96.30;;;;;;5014727;28;20173;-78
2022/01/31 07:45:56;;;;;;;9.80;4.50;;;0.50;96.30;;;;;;5013988;28;20196;-77
2022/01/31 07:48:25;;;;;;;15.57;4.30;;;0.50;96.30;;;;;;5012188;28;20423;-78
2022/01/31 07:50:51;;;;;;;16.07;3.90;;;0.50;96.30;;;;;;5005346;28;20532;-78
2022/01/31 07:53:17;;;;;;;21.20;4.40;;;0.60;96.30;;;;;;5032296;28;20441;-78
2022/01/31 07:55:42;;;;;;;10.57;3.40;;;0.60;96.30;;;;;;5014369;28;20173;-80
2022/01/31 07:58:08;;;;;;;15.40;3.67;;;0.60;96.30;;;;;;5013811;28;20172;-81
2022/01/31 08:00:33;;;;;;;14.27;4.30;;;0.60;96.30;;;;;;5012047;28;20200;-81
2022/01/31 08:02:59;;;;;;;13.80;3.37;;;0.60;96.30;;;;;;5031664;28;20180;-79
2022/01/31 08:05:24;;;;;;;16.67;3.33;;;0.60;96.30;;;;;;5011141;28;20269;-78
2022/01/31 08:07:50;;;;;;;16.10;5.60;;;0.60;96.30;;;;;;5014520;28;20184;-78
2022/01/31 08:10:16;;;;;;;15.47;4.13;;;0.70;96.30;;;;;;5026187;28;20927;-78
2022/01/31 08:12:42;;;;;;;14.17;4.20;;;0.70;96.30;;;;;;5005882;28;20160;-77
2022/01/31 08:15:14;;;;;;;12.00;2.50;;;0.80;96.30;;;;;;5013623;28;20406;-79
2022/01/31 08:17:40;;;;;;;11.47;2.93;;;0.70;96.30;;;;;;5029280;28;20993;-78
2022/01/31 08:20:07;;;;;;;10.33;2.97;;;0.60;96.30;;;;;;5031349;28;20433;-78
2022/01/31 08:22:33;;;;;;;24.63;3.70;;;0.50;96.30;;;;;;5029368;28;20240;-78
2022/01/31 08:24:58;;;;;;;14.43;4.50;;;0.30;96.30;;;;;;5009410;28;20475;-78
2022/01/31 08:27:24;;;;;;;15.67;3.90;;;0.30;96.30;;;;;;5020625;28;20172;-78
2022/01/31 08:29:55;;;;;;;15.40;3.43;;;0.40;96.30;;;;;;5000632;28;20195;-79
2022/01/31 08:32:33;;;;;;;20.87;3.97;;;0.40;96.30;;;;;;5012795;28;20193;-78
2022/01/31 08:37:43;;;;;;;21.07;5.53;;;0.40;96.30;;;;;;5032155;28;20410;-79
2022/01/31 08:40:09;;;;;;;11.33;3.27;;;0.40;96.30;;;;;;5012646;28;20415;-79
2022/01/31 08:42:36;;;;;;;12.60;3.60;;;0.30;96.30;;;;;;5014503;28;20227;-79
2022/01/31 08:45:01;;;;;;;29.00;11.80;;;0.30;96.30;;;;;;5009864;28;20836;-79
2022/01/31 08:47:27;;;;;;;16.37;5.37;;;0.20;96.30;;;;;;5011596;28;20426;-78
2022/01/31 08:49:52;;;;;;;14.60;5.77;;;0.30;96.30;;;;;;5032204;28;20173;-79
2022/01/31 08:52:18;;;;;;;26.90;10.80;;;0.30;96.30;;;;;;5029100;28;20663;-79
2022/01/31 08:54:44;;;;;;;28.10;12.90;;;0.30;96.30;;;;;;5018329;28;20663;-79
2022/01/31 08:57:09;;;;;;;15.60;8.00;;;0.30;96.30;;;;;;5016343;28;20192;-79
2022/01/31 08:59:41;;;;;;;13.30;4.00;;;0.10;96.30;;;;;;5028821;28;20182;-78
2022/01/31 09:02:13;;;;;;;13.33;4.90;;;0.10;96.30;;;;;;5018673;28;20207;-79
2022/01/31 09:04:47;;;;;;;13.97;4.20;;;0.10;96.30;;;;;;5021822;28;20827;-79
2022/01/31 09:07:21;;;;;;;14.90;4.00;;;0.10;96.30;;;;;;5014353;28;20954;-79
2022/01/31 09:09:53;;;;;;;8.47;3.10;;;0.10;96.30;;;;;;5017558;28;20489;-79
2022/01/31 09:12:26;;;;;;;14.47;4.57;;;0.00;96.30;;;;;;5023370;28;21040;-80
2022/01/31 09:14:52;;;;;;;12.80;3.80;;;0.00;96.30;;;;;;5016602;28;20427;-80
2022/01/31 09:17:18;;;;;;;8.03;2.67;;;0.20;96.30;;;;;;5034655;28;20510;-80
2022/01/31 09:19:43;;;;;;;10.10;3.30;;;0.30;96.30;;;;;;5018340;28;20613;-81
2022/01/31 09:22:09;;;;;;;7.23;3.47;;;0.30;96.30;;;;;;5033649;28;20211;-80
2022/01/31 09:24:39;;;;;;;19.47;4.80;;;0.30;96.30;;;;;;5016369;28;20216;-80
2022/01/31 09:27:09;;;;;;;14.10;3.80;;;0.40;96.30;;;;;;5031838;28;20659;-80
2022/01/31 09:29:34;;;;;;;12.23;4.07;;;0.40;96.30;;;;;;5034141;28;20433;-80
2022/01/31 09:32:02;;;;;;;10.70;3.40;;;0.40;96.30;;;;;;5016791;28;20439;-80
2022/01/31 09:34:30;;;;;;;8.00;2.60;;;0.30;96.30;;;;;;5013953;28;20644;-80
2022/01/31 09:36:56;;;;;;;9.10;3.50;;;0.50;96.30;;;;;;5034089;28;20465;-80
2022/01/31 09:39:22;;;;;;;10.23;2.63;;;0.40;96.30;;;;;;5032389;28;20427;-80
2022/01/31 09:41:53;;;;;;;4.47;2.07;;;0.50;96.30;;;;;;5016349;28;20443;-80
2022/01/31 09:49:13;;;;;;;8.77;2.40;;;0.40;96.30;;;;;;5033729;28;20437;-79
2022/01/31 09:51:38;;;;;;;8.00;2.40;;;0.50;96.30;;;;;;5031356;28;20687;-79
2022/01/31 09:54:05;;;;;;;4.20;2.33;;;0.60;96.30;;;;;;5033720;28;20415;-79
2022/01/31 09:56:35;;;;;;;3.40;1.63;;;0.70;96.30;;;;;;5031112;28;20191;-79
2022/01/31 09:59:03;;;;;;;5.03;2.00;;;0.90;96.30;;;;;;5017389;28;20415;-80
2022/01/31 10:01:30;;;;;;;4.00;2.00;;;0.80;96.30;;;;;;5034070;28;20525;-78
2022/01/31 10:04:04;;;;;;;5.73;2.03;;;0.90;96.30;;;;;;5010601;28;21008;-80
2022/01/31 10:06:37;;;;;;;4.30;1.97;;;0.90;96.30;;;;;;5013471;28;20514;-78
2022/01/31 10:09:13;;;;;;;3.00;1.67;;;1.00;96.30;;;;;;5013697;28;20422;-78
2022/01/31 10:17:24;;;;;;;21.77;15.80;;;1.30;96.30;;;;;;5028103;28;20430;-78
2022/01/31 10:19:51;;;;;;;3.10;2.23;;;1.30;96.30;;;;;;5030792;28;20449;-78
2022/01/31 10:22:19;;;;;;;4.90;2.07;;;1.20;96.30;;;;;;5015528;28;20454;-78
2022/01/31 10:24:48;;;;;;;2.00;1.00;;;1.40;96.30;;;;;;5033174;28;20490;-80
2022/01/31 10:27:21;;;;;;;2.40;2.03;;;1.40;96.30;;;;;;5030223;28;20438;-78
2022/01/31 10:29:48;;;;;;;4.33;1.40;;;1.40;96.30;;;;;;5014939;28;20447;-78
2022/01/31 10:32:26;;;;;;;4.07;0.93;;;1.40;96.30;;;;;;5012403;28;20450;-78
2022/01/31 10:34:58;;;;;;;1.27;0.80;;;1.40;96.30;;;;;;5001859;28;20430;-80
2022/01/31 10:37:25;;;;;;;2.80;1.17;;;1.40;96.30;;;;;;5030632;28;20925;-77
2022/01/31 10:45:51;;;;;;;1.20;0.83;;;1.20;96.30;;;;;;5031537;28;20462;-76
2022/01/31 10:53:53;;;;;;;2.40;0.70;;;1.10;96.30;;;;;;5032231;28;20437;-76
2022/01/31 10:56:19;;;;;;;2.10;1.00;;;1.20;96.30;;;;;;5029233;28;20920;-75
2022/01/31 10:58:56;;;;;;;1.00;0.80;;;1.20;96.30;;;;;;5032149;28;20419;-75
2022/01/31 11:01:22;;;;;;;1.00;0.70;;;1.10;96.30;;;;;;5029088;28;20663;-75
2022/01/31 11:03:48;;;;;;;2.30;0.73;;;1.10;96.30;;;;;;5026871;28;20430;-75
2022/01/31 11:06:13;;;;;;;1.53;0.60;;;1.20;96.30;;;;;;5030248;28;20589;-74
2022/01/31 11:08:39;;;;;;;0.90;0.67;;;1.10;96.30;;;;;;5029564;28;20204;-73
2022/01/31 11:11:06;;;;;;;1.63;0.70;;;1.20;96.30;;;;;;5014318;28;20192;-73
2022/01/31 11:13:34;;;;;;;1.97;1.00;;;1.10;96.30;;;;;;5029168;28;20415;-73
2022/01/31 11:16:00;;;;;;;1.00;0.60;;;1.20;96.30;;;;;;5030852;28;20434;-72
2022/01/31 11:18:29;;;;;;;1.17;0.83;;;1.20;96.30;;;;;;5027382;28;20438;-73
2022/01/31 11:21:04;;;;;;;0.80;0.60;;;1.10;96.30;;;;;;5023830;28;20212;-72
2022/01/31 11:23:34;;;;;;;2.30;0.90;;;0.90;96.30;;;;;;5010827;28;20477;-72
2022/01/31 11:26:01;;;;;;;1.93;1.30;;;0.90;96.30;;;;;;5029185;28;20462;-72
2022/01/31 11:28:31;;;;;;;1.30;0.70;;;0.90;96.30;;;;;;5032099;28;20956;-72
2022/01/31 11:30:58;;;;;;;1.40;0.70;;;0.90;96.30;;;;;;5020967;28;20886;-72
2022/01/31 11:33:25;;;;;;;1.43;1.03;;;0.90;96.30;;;;;;5012094;28;20416;-71
2022/01/31 11:35:51;;;;;;;1.07;0.90;;;0.90;96.30;;;;;;5020604;28;20919;-72
2022/01/31 11:38:17;;;;;;;1.17;0.63;;;1.00;96.30;;;;;;5018646;28;20471;-71
2022/01/31 11:40:43;;;;;;;1.47;0.90;;;1.10;96.30;;;;;;5016463;28;20522;-72
2022/01/31 11:43:11;;;;;;;1.03;0.73;;;0.90;96.30;;;;;;5010016;28;20180;-71
2022/01/31 11:45:39;;;;;;;1.40;1.00;;;0.90;96.30;;;;;;5031178;28;20966;-71
2022/01/31 11:48:23;;;;;;;2.13;0.80;;;0.90;96.30;;;;;;5031767;28;20439;-70
2022/01/31 11:50:53;;;;;;;1.33;0.83;;;0.90;96.30;;;;;;5014205;28;20439;-70
2022/01/31 11:53:34;;;;;;;1.00;0.87;;;0.90;96.30;;;;;;5031814;28;20411;-70
2022/01/31 11:56:21;;;;;;;2.40;1.40;;;0.90;96.30;;;;;;5031118;28;20410;-70
2022/01/31 11:58:53;;;;;;;2.13;1.20;;;0.90;96.30;;;;;;5014129;28;20427;-70
2022/01/31 12:01:21;;;;;;;1.17;0.97;;;0.90;96.30;;;;;;5031572;28;20426;-70
2022/01/31 12:04:00;;;;;;;2.20;1.40;;;0.90;96.30;;;;;;5024471;28;20431;-70
2022/01/31 12:06:28;;;;;;;1.53;1.20;;;0.90;96.30;;;;;;5031100;28;20399;-70
2022/01/31 12:09:02;;;;;;;2.50;1.20;;;1.00;96.30;;;;;;5031688;28;20411;-70
2022/01/31 12:11:30;;;;;;;3.00;1.50;;;1.00;96.30;;;;;;5031591;28;20449;-70
2022/01/31 12:14:00;;;;;;;2.00;1.10;;;1.10;96.30;;;;;;5031399;28;20453;-69
2022/01/31 12:22:01;;;;;;;2.80;1.47;;;1.00;96.30;;;;;;5031637;28;20997;-70
2022/01/31 12:24:38;;;;;;;2.43;1.63;;;1.00;96.30;;;;;;5029364;28;20450;-69
2022/01/31 12:27:13;;;;;;;1.83;1.43;;;1.00;96.30;;;;;;5036703;28;20420;-69
2022/01/31 12:29:50;;;;;;;1.70;1.60;;;1.10;96.30;;;;;;5037419;28;21735;-70
2022/01/31 12:32:38;;;;;;;3.33;1.53;;;1.00;96.30;;;;;;5039273;28;20419;-70
2022/01/31 12:35:14;;;;;;;2.70;1.60;;;1.00;96.30;;;;;;5034957;28;20548;-70
2022/01/31 12:37:48;;;;;;;2.43;1.33;;;1.00;96.30;;;;;;5034814;28;20556;-69
2022/01/31 12:40:29;;;;;;;2.90;1.37;;;1.10;96.30;;;;;;5018693;28;20509;-70
2022/01/31 12:45:38;;;;;;;2.33;1.60;;;1.30;96.30;;;;;;5029860;28;20462;-69
2022/01/31 12:48:14;;;;;;;5.23;1.60;;;1.30;96.30;;;;;;5016937;28;20427;-70
2022/01/31 12:50:52;;;;;;;2.27;1.60;;;1.20;96.30;;;;;;5031431;28;20443;-70
2022/01/31 12:53:28;;;;;;;2.77;1.50;;;1.30;96.30;;;;;;5001557;28;20931;-69
2022/01/31 12:55:57;;;;;;;3.10;1.60;;;1.30;96.30;;;;;;5018067;28;20503;-70
2022/01/31 12:58:29;;;;;;;1.63;1.43;;;1.30;96.30;;;;;;5022992;28;20415;-69
2022/01/31 13:00:54;;;;;;;3.03;1.93;;;1.20;96.30;;;;;;5033617;28;20938;-71
2022/01/31 13:03:35;;;;;;;6.50;1.70;;;1.20;96.30;;;;;;5041639;28;20460;-70
2022/01/31 13:06:00;;;;;;;4.10;1.70;;;1.20;96.30;;;;;;5032731;28;20951;-70
2022/01/31 13:08:26;;;;;;;1.93;1.40;;;1.20;96.30;;;;;;5043290;28;20411;-71
2022/01/31 13:10:53;;;;;;;1.87;1.60;;;1.20;96.30;;;;;;5042749;28;20217;-69
2022/01/31 13:13:33;;;;;;;4.10;1.73;;;1.10;96.30;;;;;;5042383;28;20164;-71
2022/01/31 13:16:06;;;;;;;3.10;2.17;;;1.20;96.30;;;;;;5032604;28;20996;-70
2022/01/31 13:18:32;;;;;;;3.37;1.93;;;1.00;96.30;;;;;;5034060;28;20415;-70
2022/01/31 13:21:02;;;;;;;3.97;2.00;;;1.00;96.30;;;;;;5038778;28;20439;-69
2022/01/31 13:23:28;;;;;;;1.40;1.30;;;1.00;96.30;;;;;;5022375;28;20790;-69
2022/01/31 13:26:03;;;;;;;2.83;1.50;;;0.90;96.30;;;;;;5034824;28;20545;-70
2022/01/31 13:28:28;;;;;;;3.73;1.73;;;1.00;96.30;;;;;;5016772;28;20680;-69
2022/01/31 13:31:02;;;;;;;2.47;1.77;;;1.00;96.30;;;;;;5025780;28;20435;-71
2022/01/31 13:33:27;;;;;;;2.00;1.50;;;1.00;96.30;;;;;;5034620;28;20191;-70
2022/01/31 13:36:00;;;;;;;2.70;1.80;;;1.10;96.30;;;;;;5018548;28;20435;-69
2022/01/31 13:38:25;;;;;;;2.13;1.90;;;1.20;96.30;;;;;;5032873;28;20184;-70
2022/01/31 13:40:53;;;;;;;2.83;2.00;;;1.30;96.30;;;;;;5029207;28;20451;-69
2022/01/31 13:43:26;;;;;;;4.70;1.90;;;1.40;96.30;;;;;;5008572;28;20212;-69
2022/01/31 13:46:00;;;;;;;2.90;1.77;;;1.40;96.30;;;;;;5025918;28;20462;-70
2022/01/31 13:48:50;;;;;;;2.03;1.40;;;1.30;96.30;;;;;;5008889;28;20426;-69
2022/01/31 13:51:32;;;;;;;2.13;1.70;;;1.40;96.30;;;;;;5014014;28;20420;-69
2022/01/31 13:54:08;;;;;;;5.00;2.00;;;1.30;96.30;;;;;;5013893;28;20400;-70
2022/01/31 13:56:39;;;;;;;2.77;1.60;;;1.20;96.30;;;;;;5013355;28;20404;-69
2022/01/31 13:59:08;;;;;;;4.50;1.63;;;1.10;96.30;;;;;;5029983;28;20514;-69
2022/01/31 14:01:33;;;;;;;1.80;1.63;;;1.10;96.30;;;;;;5033521;28;20973;-69
2022/01/31 14:03:59;;;;;;;2.30;1.77;;;1.10;96.30;;;;;;5023225;28;20423;-70
2022/01/31 14:06:29;;;;;;;2.93;1.37;;;1.10;96.30;;;;;;4998517;28;20640;-69
2022/01/31 14:09:00;;;;;;;1.90;1.60;;;1.10;96.30;;;;;;5025520;28;20415;-70
2022/01/31 14:11:27;;;;;;;6.13;1.90;;;1.10;96.30;;;;;;5032246;28;20790;-69
2022/01/31 14:13:55;;;;;;;2.17;1.63;;;1.10;96.30;;;;;;5036971;28;20418;-69
2022/01/31 14:16:33;;;;;;;2.33;1.40;;;1.10;96.30;;;;;;5046564;28;20414;-69
2022/01/31 14:19:02;;;;;;;2.23;1.70;;;1.10;96.30;;;;;;5044764;28;20560;-70
2022/01/31 14:21:29;;;;;;;2.70;1.63;;;1.10;96.30;;;;;;5033203;28;20476;-69
2022/01/31 14:23:56;;;;;;;2.73;1.83;;;1.10;96.30;;;;;;5048688;28;20429;-70
2022/01/31 14:26:36;;;;;;;2.67;1.70;;;1.10;96.30;;;;;;5052402;28;20418;-70
2022/01/31 14:29:04;;;;;;;2.33;1.43;;;1.20;96.30;;;;;;5043654;28;20426;-69
2022/01/31 14:31:36;;;;;;;1.93;1.80;;;1.10;96.30;;;;;;5048266;28;20437;-69
2022/01/31 14:34:05;;;;;;;3.07;1.80;;;1.00;96.30;;;;;;5041806;28;20830;-69
2022/01/31 14:36:38;;;;;;;5.67;1.90;;;1.00;96.30;;;;;;5032517;28;20906;-69
2022/01/31 14:42:09;;;;;;;2.33;1.80;;;1.00;96.30;;;;;;5032922;28;20426;-69
2022/01/31 14:47:24;;;;;;;1.87;1.63;;;0.90;96.30;;;;;;5032955;28;20939;-68
2022/01/31 14:50:11;;;;;;;2.23;1.90;;;0.90;96.30;;;;;;5015229;28;20423;-68
2022/01/31 14:52:38;;;;;;;2.37;2.00;;;1.00;96.30;;;;;;5032027;28;20545;-69
2022/01/31 14:55:07;;;;;;;3.00;1.53;;;1.00;96.30;;;;;;5031839;28;20423;-69
2022/01/31 14:57:34;;;;;;;2.77;2.00;;;1.00;96.30;;;;;;5032316;28;20414;-69
2022/01/31 14:59:59;;;;;;;2.23;1.60;;;1.00;96.30;;;;;;5032846;28;20766;-69
2022/01/31 15:02:25;;;;;;;2.40;2.00;;;1.10;96.30;;;;;;5032582;28;20435;-69
2022/01/31 15:04:51;;;;;;;3.30;2.50;;;1.00;96.30;;;;;;5032101;28;20207;-69
2022/01/31 15:07:16;;;;;;;2.10;1.83;;;1.00;96.30;;;;;;5032558;28;20415;-68
2022/01/31 15:09:42;;;;;;;2.60;2.10;;;1.00;96.30;;;;;;5032571;28;20648;-69
2022/01/31 15:12:08;;;;;;;3.90;1.50;;;1.00;96.30;;;;;;5032481;28;20192;-69
2022/01/31 15:14:35;;;;;;;3.83;1.80;;;0.90;96.30;;;;;;5032265;28;20422;-69
2022/01/31 15:17:02;;;;;;;2.20;2.00;;;0.90;96.30;;;;;;5032532;28;20421;-68
2022/01/31 15:19:28;;;;;;;3.83;1.87;;;0.90;96.30;;;;;;5032342;28;20422;-69
2022/01/31 15:21:54;;;;;;;1.83;1.63;;;0.90;96.30;;;;;;5032135;28;20435;-69
2022/01/31 15:24:20;;;;;;;2.40;2.00;;;0.90;96.30;;;;;;5031710;28;20694;-69
2022/01/31 15:26:46;;;;;;;1.60;1.50;;;0.90;96.30;;;;;;5031796;28;20426;-69
2022/01/31 15:29:11;;;;;;;4.20;2.00;;;0.90;96.30;;;;;;5032189;28;20431;-69
2022/01/31 15:31:37;;;;;;;1.90;1.77;;;0.90;96.30;;;;;;5032368;28;20195;-69
2022/01/31 15:34:02;;;;;;;2.13;1.93;;;0.80;96.30;;;;;;5032298;28;20180;-69
2022/01/31 15:36:28;;;;;;;1.70;1.60;;;0.80;96.30;;;;;;5014008;28;20181;-69
2022/01/31 15:38:54;;;;;;;1.90;1.60;;;0.80;96.30;;;;;;5032177;28;20204;-68
2022/01/31 15:41:20;;;;;;;1.73;1.63;;;0.80;96.30;;;;;;5031691;28;20230;-67
2022/01/31 15:43:47;;;;;;;2.90;2.10;;;0.80;96.30;;;;;;5032295;28;20667;-69
2022/01/31 15:46:13;;;;;;;1.73;1.47;;;0.70;96.30;;;;;;5031864;28;20461;-69
2022/01/31 15:48:39;;;;;;;2.20;2.00;;;0.70;96.30;;;;;;5014366;28;20848;-69
2022/01/31 15:51:05;;;;;;;2.40;2.20;;;0.70;96.30;;;;;;5032156;28;20439;-69
2022/01/31 15:53:31;;;;;;;3.27;1.90;;;0.70;96.30;;;;;;5032140;28;20644;-69
2022/01/31 15:55:56;;;;;;;2.10;1.90;;;0.70;96.30;;;;;;5031829;28;20426;-69
2022/01/31 15:58:22;;;;;;;2.40;2.20;;;0.60;96.30;;;;;;5032390;28;20582;-68
2022/01/31 16:00:52;;;;;;;2.57;2.10;;;0.60;96.30;;;;;;5032088;28;20188;-69
2022/01/31 16:03:18;;;;;;;3.10;2.17;;;0.70;96.30;;;;;;5016164;28;20477;-69
2022/01/31 16:05:46;;;;;;;3.20;2.50;;;0.70;96.30;;;;;;5035965;28;20592;-69
2022/01/31 16:08:12;;;;;;;2.13;1.93;;;0.70;96.30;;;;;;5036031;28;20423;-70
2022/01/31 16:10:38;;;;;;;2.00;1.80;;;0.70;96.30;;;;;;5018664;28;20446;-69
2022/01/31 16:13:05;;;;;;;2.30;2.10;;;0.70;96.30;;;;;;5036036;28;20639;-69
2022/01/31 16:15:37;;;;;;;2.83;2.03;;;0.70;96.30;;;;;;5035725;28;20406;-69
2022/01/31 16:18:04;;;;;;;2.20;1.97;;;0.70;96.30;;;;;;5018214;28;20419;-69
2022/01/31 16:20:31;;;;;;;6.60;2.33;;;0.70;96.30;;;;;;5035908;28;20406;-69
2022/01/31 16:22:56;;;;;;;2.20;2.00;;;0.70;96.30;;;;;;5036162;28;20476;-69
2022/01/31 16:25:23;;;;;;;1.77;1.67;;;0.70;96.30;;;;;;5035702;28;20485;-69
2022/01/31 16:27:49;;;;;;;3.07;2.10;;;0.70;96.30;;;;;;5035921;28;20164;-69
2022/01/31 16:30:17;;;;;;;5.93;1.93;;;0.70;96.30;;;;;;5035494;28;20444;-69
2022/01/31 16:32:44;;;;;;;2.43;2.23;;;0.70;96.30;;;;;;5035548;28;20411;-69
2022/01/31 16:35:10;;;;;;;2.47;2.00;;;0.70;96.30;;;;;;5035312;28;20419;-69
2022/01/31 16:37:36;;;;;;;2.30;2.10;;;0.70;96.30;;;;;;5035429;28;20425;-69
2022/01/31 16:40:04;;;;;;;1.80;1.70;;;0.70;96.30;;;;;;5017805;28;20497;-70
2022/01/31 16:42:30;;;;;;;2.13;1.93;;;0.70;96.30;;;;;;5034912;28;20976;-69
2022/01/31 16:44:56;;;;;;;2.20;2.00;;;0.70;96.30;;;;;;5039636;28;20490;-69
2022/01/31 16:47:21;;;;;;;3.30;2.10;;;0.70;96.30;;;;;;5010649;28;20177;-70
2022/01/31 16:49:50;;;;;;;2.50;2.30;;;0.70;96.30;;;;;;5031508;28;20423;-70
2022/01/31 16:52:16;;;;;;;2.00;1.80;;;0.70;96.30;;;;;;5035706;28;20664;-70
2022/01/31 16:54:42;;;;;;;2.50;2.30;;;0.70;96.30;;;;;;5052873;28;20421;-70
2022/01/31 16:57:07;;;;;;;2.17;1.77;;;0.70;96.30;;;;;;5054089;28;20179;-70
2022/01/31 16:59:33;;;;;;;2.10;2.00;;;0.70;96.30;;;;;;5014439;28;20450;-70
2022/01/31 17:02:00;;;;;;;1.90;1.70;;;0.70;96.30;;;;;;5029177;28;20279;-70
2022/01/31 17:04:26;;;;;;;2.30;2.10;;;0.60;96.30;;;;;;5032849;28;20196;-70
2022/01/31 17:06:53;;;;;;;2.23;1.90;;;0.60;96.30;;;;;;5019703;28;20423;-71
2022/01/31 17:09:19;;;;;;;2.30;2.10;;;0.60;96.30;;;;;;5023444;28;20438;-70
2022/01/31 17:11:46;;;;;;;2.17;1.80;;;0.60;96.30;;;;;;5034104;28;20530;-70
2022/01/31 17:14:11;;;;;;;4.63;2.27;;;0.60;96.30;;;;;;5031286;28;20414;-71
2022/01/31 17:16:39;;;;;;;2.23;2.03;;;0.50;96.30;;;;;;5032572;28;20464;-70
2022/01/31 17:19:05;;;;;;;5.13;2.10;;;0.50;96.30;;;;;;5032880;28;20172;-70
2022/01/31 17:21:32;;;;;;;1.93;1.73;;;0.50;96.30;;;;;;5034286;28;20442;-71
2022/01/31 17:23:58;;;;;;;4.37;2.17;;;0.50;96.30;;;;;;5034080;28;20617;-71
2022/01/31 17:26:24;;;;;;;2.27;2.07;;;0.50;96.30;;;;;;5034061;28;20959;-71
2022/01/31 17:28:50;;;;;;;2.10;1.90;;;0.50;96.30;;;;;;5034296;28;20648;-70
2022/01/31 17:31:16;;;;;;;2.50;2.30;;;0.50;96.30;;;;;;5034282;28;20198;-70
2022/01/31 17:33:42;;;;;;;1.90;1.80;;;0.40;96.30;;;;;;5034178;28;20501;-70
2022/01/31 17:36:09;;;;;;;1.77;1.67;;;0.50;96.30;;;;;;5034015;28;20215;-71
2022/01/31 17:38:35;;;;;;;1.90;1.70;;;0.50;96.30;;;;;;5034166;28;20407;-70
2022/01/31 17:41:00;;;;;;;2.40;2.20;;;0.50;96.30;;;;;;5019503;28;20945;-71
2022/01/31 17:43:27;;;;;;;2.73;1.80;;;0.50;96.30;;;;;;5042945;28;20418;-71
2022/01/31 17:45:52;;;;;;;1.50;1.40;;;0.50;96.30;;;;;;5051543;28;20219;-70